createdAt,value
2022-12-29T00:01:23.586Z,90.90
2022-12-29T00:03:54.285Z,90.80
2022-12-29T00:06:29.184Z,90.80
2022-12-29T00:08:59.931Z,90.80
2022-12-29T00:11:31.557Z,90.90
2022-12-29T00:14:25.908Z,90.90
2022-12-29T00:16:52.825Z,90.90
2022-12-29T00:19:41.175Z,91.00
2022-12-29T00:22:30.925Z,91.00
2022-12-29T00:25:21.833Z,91.00
2022-12-29T00:28:11.828Z,91.00
2022-12-29T00:31:00.729Z,91.00
2022-12-29T00:33:50.825Z,91.00
2022-12-29T00:36:33.644Z,91.00
2022-12-29T00:39:24.927Z,91.00
2022-12-29T00:42:14.151Z,90.90
2022-12-29T00:44:44.827Z,90.80
2022-12-29T00:47:16.705Z,90.60
2022-12-29T00:49:52.140Z,90.40
2022-12-29T00:52:22.271Z,90.20
2022-12-29T00:54:56.501Z,90.10
2022-12-29T00:57:30.233Z,89.70
2022-12-29T01:00:00.892Z,89.70
2022-12-29T01:02:32.612Z,89.00
2022-12-29T01:05:04.354Z,88.30
2022-12-29T01:07:35.524Z,88.00
2022-12-29T01:10:14.436Z,87.80
2022-12-29T01:12:46.616Z,87.70
2022-12-29T01:15:19.079Z,88.10
2022-12-29T01:17:50.233Z,87.40
2022-12-29T01:20:24.561Z,87.30
2022-12-29T01:22:56.191Z,87.30
2022-12-29T01:25:27.070Z,86.60
2022-12-29T01:28:00.582Z,86.70
2022-12-29T01:30:30.983Z,86.70
2022-12-29T01:33:02.228Z,86.40
2022-12-29T01:35:33.121Z,86.50
2022-12-29T01:38:03.767Z,86.20
2022-12-29T01:40:35.906Z,85.80
2022-12-29T01:43:08.070Z,85.60
2022-12-29T01:45:39.513Z,85.70
2022-12-29T01:48:14.103Z,85.80
2022-12-29T01:50:47.483Z,85.70
2022-12-29T01:53:21.087Z,85.30
2022-12-29T01:55:55.718Z,84.60
2022-12-29T01:58:30.675Z,84.30
2022-12-29T02:01:02.454Z,84.30
2022-12-29T02:03:37.813Z,84.00
2022-12-29T02:06:18.310Z,83.50
2022-12-29T02:08:59.326Z,83.60
2022-12-29T02:11:33.962Z,83.40
2022-12-29T02:14:04.202Z,83.20
2022-12-29T02:16:49.552Z,82.70
2022-12-29T02:19:34.772Z,82.70
2022-12-29T02:22:08.067Z,82.60
2022-12-29T02:24:50.140Z,82.30
2022-12-29T02:27:35.373Z,82.20
2022-12-29T02:30:23.513Z,81.80
2022-12-29T02:33:03.072Z,81.80
2022-12-29T02:35:42.636Z,82.10
2022-12-29T02:38:18.403Z,82.10
2022-12-29T02:41:01.146Z,81.60
2022-12-29T02:43:52.477Z,81.50
2022-12-29T02:46:27.089Z,81.70
2022-12-29T02:49:06.563Z,81.80
2022-12-29T02:51:46.260Z,81.60
2022-12-29T02:54:36.536Z,81.70
2022-12-29T02:57:09.861Z,81.60
2022-12-29T02:59:41.155Z,81.20
2022-12-29T03:02:20.060Z,81.00
2022-12-29T03:05:08.674Z,80.60
2022-12-29T03:07:50.826Z,80.50
2022-12-29T03:10:34.019Z,80.40
2022-12-29T03:13:45.325Z,80.50
2022-12-29T03:16:34.570Z,80.10
2022-12-29T03:19:07.979Z,80.00
2022-12-29T03:21:58.438Z,79.70
2022-12-29T03:24:32.184Z,78.90
2022-12-29T03:27:07.054Z,79.00
2022-12-29T03:29:43.628Z,79.00
2022-12-29T03:32:16.408Z,78.90
2022-12-29T03:34:49.720Z,78.20
2022-12-29T03:37:22.959Z,77.80
2022-12-29T03:39:53.804Z,77.30
2022-12-29T03:42:27.052Z,77.00
2022-12-29T03:44:59.364Z,76.90
2022-12-29T03:47:30.174Z,76.50
2022-12-29T03:50:02.233Z,76.20
2022-12-29T03:52:36.453Z,75.50
2022-12-29T03:55:07.731Z,75.10
2022-12-29T03:57:38.627Z,74.60
2022-12-29T04:00:14.203Z,74.30
2022-12-29T04:02:45.859Z,74.60
2022-12-29T04:05:17.642Z,73.90
2022-12-29T04:07:50.788Z,73.40
2022-12-29T04:10:25.650Z,73.10
2022-12-29T04:12:56.477Z,72.80
2022-12-29T04:15:30.930Z,72.50
2022-12-29T04:18:02.381Z,72.90
2022-12-29T04:20:51.766Z,72.50
2022-12-29T04:23:22.539Z,71.70
2022-12-29T04:25:57.847Z,71.30
2022-12-29T04:28:31.823Z,71.10
2022-12-29T04:31:03.134Z,70.70
2022-12-29T04:33:38.239Z,70.00
2022-12-29T04:36:09.280Z,69.60
2022-12-29T04:38:39.976Z,69.10
2022-12-29T04:41:12.316Z,70.20
2022-12-29T04:43:42.989Z,69.20
2022-12-29T04:46:19.402Z,67.20
2022-12-29T04:48:50.640Z,66.10
2022-12-29T04:51:23.740Z,65.20
2022-12-29T04:53:54.383Z,65.70
2022-12-29T04:56:26.364Z,65.20
2022-12-29T04:58:57.696Z,65.20
2022-12-29T05:01:28.591Z,64.20
2022-12-29T05:04:03.145Z,64.70
2022-12-29T05:06:36.331Z,64.30
2022-12-29T05:09:07.554Z,63.60
2022-12-29T05:11:38.774Z,62.90
2022-12-29T05:14:13.215Z,62.80
2022-12-29T05:16:44.171Z,62.70
2022-12-29T05:19:15.221Z,62.80
2022-12-29T05:21:47.177Z,70.60
2022-12-29T05:24:20.111Z,72.60
2022-12-29T05:26:51.081Z,76.00
2022-12-29T05:29:22.551Z,61.80
2022-12-29T05:31:53.585Z,89.40
2022-12-29T05:34:24.861Z,80.70
2022-12-29T05:36:56.845Z,75.80
2022-12-29T05:39:31.229Z,74.80
2022-12-29T05:42:02.009Z,69.40
2022-12-29T05:44:33.466Z,69.00
2022-12-29T05:47:07.390Z,71.30
2022-12-29T05:49:41.271Z,70.20
2022-12-29T05:52:21.582Z,77.90
2022-12-29T05:54:52.761Z,75.90
2022-12-29T05:57:23.617Z,77.70
2022-12-29T05:59:55.411Z,91.30
2022-12-29T06:02:26.533Z,91.10
2022-12-29T06:04:57.675Z,90.70
2022-12-29T06:07:38.622Z,90.20
2022-12-29T06:10:12.878Z,90.00
2022-12-29T06:12:45.988Z,90.10
2022-12-29T06:15:17.711Z,89.30
2022-12-29T06:17:48.499Z,89.00
2022-12-29T06:20:20.936Z,87.00
2022-12-29T06:22:53.064Z,87.20
2022-12-29T06:25:23.701Z,72.60
2022-12-29T06:27:54.420Z,72.30
2022-12-29T06:30:25.985Z,72.70
2022-12-29T06:32:56.834Z,73.00
2022-12-29T06:35:27.521Z,73.00
2022-12-29T06:37:59.378Z,72.00
2022-12-29T06:40:31.485Z,70.00
2022-12-29T06:43:04.069Z,71.20
2022-12-29T06:45:36.244Z,71.40
2022-12-29T06:48:07.241Z,72.40
2022-12-29T06:50:38.402Z,76.80
2022-12-29T06:53:09.349Z,91.20
2022-12-29T06:55:40.214Z,88.90
2022-12-29T06:58:15.372Z,86.80
2022-12-29T07:00:45.731Z,87.00
2022-12-29T07:03:16.439Z,87.60
2022-12-29T07:05:48.649Z,87.80
2022-12-29T07:08:21.876Z,88.10
2022-12-29T07:11:09.578Z,90.20
2022-12-29T07:19:26.471Z,89.00
2022-12-29T07:22:00.129Z,88.00
2022-12-29T07:24:31.863Z,86.80
2022-12-29T07:27:04.553Z,86.30
2022-12-29T07:29:36.231Z,86.40
2022-12-29T07:32:07.404Z,86.00
2022-12-29T07:34:41.780Z,86.20
2022-12-29T07:37:12.949Z,87.40
2022-12-29T07:39:44.238Z,86.70
2022-12-29T07:42:17.353Z,87.80
2022-12-29T07:44:48.776Z,88.60
2022-12-29T07:47:21.795Z,89.10
2022-12-29T07:49:53.922Z,90.00
2022-12-29T07:52:26.083Z,90.40
2022-12-29T07:55:01.294Z,91.30
2022-12-29T07:57:32.464Z,85.70
2022-12-29T08:00:05.841Z,83.20
2022-12-29T08:02:37.637Z,83.50
2022-12-29T08:05:10.178Z,84.40
2022-12-29T08:07:43.305Z,86.90
2022-12-29T08:10:17.992Z,90.10
2022-12-29T08:12:48.873Z,89.20
2022-12-29T08:15:28.644Z,85.50
2022-12-29T08:17:55.124Z,84.80
2022-12-29T08:20:26.098Z,84.90
2022-12-29T08:22:58.009Z,83.80
2022-12-29T08:25:30.558Z,83.40
2022-12-29T08:28:09.325Z,83.00
2022-12-29T08:30:40.851Z,84.10
2022-12-29T08:33:13.074Z,82.90
2022-12-29T08:35:43.941Z,82.10
2022-12-29T08:38:17.885Z,81.70
2022-12-29T08:41:05.222Z,81.60
2022-12-29T08:43:39.448Z,81.20
2022-12-29T08:49:15.607Z,81.50
2022-12-29T08:51:50.862Z,81.40
2022-12-29T08:54:21.613Z,81.80
2022-12-29T08:56:54.098Z,81.70
2022-12-29T08:59:32.127Z,81.90
2022-12-29T09:02:06.710Z,81.50
2022-12-29T09:04:37.801Z,81.60
2022-12-29T09:07:10.377Z,81.80
2022-12-29T09:09:42.525Z,81.10
2022-12-29T09:12:15.209Z,81.10
2022-12-29T09:14:46.419Z,81.00
2022-12-29T09:17:35.046Z,80.40
2022-12-29T09:20:08.015Z,80.90
2022-12-29T09:22:46.894Z,80.60
2022-12-29T09:25:17.907Z,80.50
2022-12-29T09:27:52.138Z,80.90
2022-12-29T09:30:24.451Z,81.20
2022-12-29T09:32:57.742Z,80.60
2022-12-29T09:35:28.484Z,79.70
2022-12-29T09:38:00.643Z,79.70
2022-12-29T09:40:38.914Z,80.50
2022-12-29T09:46:31.312Z,80.60
2022-12-29T09:49:07.393Z,81.10
2022-12-29T09:54:59.861Z,82.20
2022-12-29T09:57:42.412Z,82.00
2022-12-29T10:03:21.002Z,82.20
2022-12-29T10:06:03.162Z,82.50
2022-12-29T10:11:51.975Z,92.30
2022-12-29T10:14:48.043Z,87.20
2022-12-29T10:17:39.846Z,87.90
2022-12-29T10:20:21.987Z,88.10
2022-12-29T10:23:10.373Z,87.90
2022-12-29T10:25:43.654Z,88.40
2022-12-29T10:28:20.342Z,88.60
2022-12-29T10:30:51.048Z,88.30
2022-12-29T10:33:30.825Z,88.60
2022-12-29T10:36:02.417Z,88.30
2022-12-29T10:39:02.631Z,88.40
2022-12-29T10:42:00.270Z,88.40
2022-12-29T10:44:33.531Z,89.10
2022-12-29T10:47:12.500Z,89.30
2022-12-29T10:49:45.183Z,89.80
2022-12-29T10:52:16.840Z,90.40
2022-12-29T10:55:08.528Z,90.50
2022-12-29T10:57:46.182Z,90.60
2022-12-29T11:00:24.940Z,84.70
2022-12-29T11:03:31.195Z,90.70
2022-12-29T11:06:19.662Z,90.80
2022-12-29T11:08:55.687Z,91.10
2022-12-29T11:11:34.680Z,91.30
2022-12-29T11:14:26.413Z,91.80
2022-12-29T11:17:10.664Z,94.60
2022-12-29T11:19:56.433Z,96.20
2022-12-29T11:22:31.695Z,93.70
2022-12-29T11:25:10.586Z,90.80
2022-12-29T11:27:42.513Z,86.20
2022-12-29T11:30:16.359Z,83.60
2022-12-29T11:32:49.750Z,83.30
2022-12-29T11:35:41.229Z,82.20
2022-12-29T11:38:23.606Z,81.90
2022-12-29T11:40:56.937Z,81.80
2022-12-29T11:43:42.226Z,82.80
2022-12-29T11:46:18.210Z,82.60
2022-12-29T11:48:50.933Z,83.20
2022-12-29T11:51:27.260Z,83.40
2022-12-29T11:54:01.377Z,83.90
2022-12-29T11:56:46.640Z,84.20
2022-12-29T11:59:28.271Z,85.10
2022-12-29T12:02:00.122Z,84.80
2022-12-29T12:04:36.396Z,85.30
2022-12-29T12:07:15.950Z,85.80
2022-12-29T12:10:03.142Z,86.70
2022-12-29T12:12:44.589Z,86.10
2022-12-29T12:15:18.156Z,85.90
2022-12-29T12:18:10.988Z,85.90
2022-12-29T12:20:48.845Z,86.00
2022-12-29T12:23:31.406Z,85.90
2022-12-29T12:26:24.568Z,85.40
2022-12-29T12:29:11.069Z,85.50
2022-12-29T12:31:55.625Z,85.20
2022-12-29T12:34:39.571Z,85.50
2022-12-29T12:40:14.375Z,85.90
2022-12-29T12:43:29.684Z,85.40
2022-12-29T12:46:30.805Z,85.60
2022-12-29T12:49:34.667Z,85.10
2022-12-29T12:55:57.975Z,84.90
2022-12-29T12:58:32.938Z,84.40
2022-12-29T13:01:15.264Z,83.90
2022-12-29T13:04:11.333Z,83.70
2022-12-29T13:07:05.991Z,84.70
2022-12-29T13:09:39.228Z,84.40
2022-12-29T13:12:23.856Z,84.40
2022-12-29T13:15:07.447Z,84.50
2022-12-29T13:17:40.643Z,83.90
2022-12-29T13:20:31.894Z,78.80
2022-12-29T13:23:25.705Z,79.70
2022-12-29T13:26:19.459Z,84.30
2022-12-29T13:29:01.553Z,84.80
2022-12-29T13:31:40.413Z,85.00
2022-12-29T13:34:25.803Z,84.40
2022-12-29T13:37:04.799Z,75.50
2022-12-29T13:39:38.383Z,84.00
2022-12-29T13:42:10.204Z,84.20
2022-12-29T13:44:58.335Z,84.30
2022-12-29T13:47:39.455Z,76.30
2022-12-29T13:50:21.139Z,84.30
2022-12-29T13:53:15.131Z,83.50
2022-12-29T13:56:00.812Z,84.60
2022-12-29T13:58:36.882Z,83.70
2022-12-29T14:01:20.454Z,84.80
2022-12-29T14:04:00.000Z,76.40
2022-12-29T14:06:33.241Z,85.00
2022-12-29T14:09:08.901Z,75.00
2022-12-29T14:11:48.441Z,70.00
2022-12-29T14:14:24.426Z,70.90
2022-12-29T14:16:59.215Z,70.10
2022-12-29T14:19:39.788Z,70.10
2022-12-29T14:22:12.105Z,70.10
2022-12-29T14:24:48.450Z,70.40
2022-12-29T14:27:21.753Z,70.40
2022-12-29T14:29:53.417Z,70.50
2022-12-29T14:32:32.866Z,70.50
2022-12-29T14:35:05.424Z,70.60
2022-12-29T14:37:38.546Z,70.70
2022-12-29T14:40:11.699Z,70.60
2022-12-29T14:42:43.972Z,70.60
2022-12-29T14:45:21.169Z,70.50
2022-12-29T14:47:56.563Z,70.40
2022-12-29T14:50:48.106Z,70.10
2022-12-29T14:53:50.257Z,69.90
2022-12-29T14:56:23.973Z,69.70
2022-12-29T14:59:03.238Z,69.70
2022-12-29T15:01:49.612Z,69.60
2022-12-29T15:04:22.835Z,69.70
2022-12-29T15:07:02.381Z,69.90
2022-12-29T15:09:50.534Z,70.10
2022-12-29T15:12:39.623Z,70.20
2022-12-29T15:15:31.105Z,70.40
2022-12-29T15:18:08.501Z,70.50
2022-12-29T15:20:40.756Z,70.60
2022-12-29T15:23:19.326Z,70.90
2022-12-29T15:26:01.237Z,71.30
2022-12-29T15:28:33.928Z,71.30
2022-12-29T15:31:10.325Z,71.60
2022-12-29T15:33:46.901Z,71.70
2022-12-29T15:36:25.965Z,72.20
2022-12-29T15:38:56.965Z,72.30
2022-12-29T15:41:30.231Z,72.40
2022-12-29T15:44:16.854Z,72.30
2022-12-29T15:46:48.075Z,72.60
2022-12-29T15:49:19.667Z,72.50
2022-12-29T15:51:50.396Z,72.80
2022-12-29T15:54:26.437Z,73.30
2022-12-29T15:56:57.066Z,74.10
2022-12-29T15:59:37.715Z,73.50
2022-12-29T16:02:12.641Z,73.60
2022-12-29T16:07:41.318Z,73.40
2022-12-29T16:10:09.323Z,73.60
2022-12-29T16:12:41.044Z,73.60
2022-12-29T16:18:08.896Z,99.50
2022-12-29T16:23:32.451Z,96.40
2022-12-29T16:26:03.493Z,82.20
2022-12-29T16:28:44.751Z,87.90
2022-12-29T16:31:30.287Z,85.20
2022-12-29T16:34:00.914Z,84.30
2022-12-29T16:36:38.763Z,77.40
2022-12-29T16:39:25.220Z,76.20
2022-12-29T16:42:02.422Z,76.30
2022-12-29T16:44:35.248Z,75.90
2022-12-29T16:47:16.736Z,76.10
2022-12-29T16:49:50.347Z,75.30
2022-12-29T16:52:26.165Z,75.30
2022-12-29T16:55:05.401Z,75.60
2022-12-29T16:57:39.177Z,75.60
2022-12-29T17:00:12.754Z,75.80
2022-12-29T17:02:46.553Z,75.90
2022-12-29T17:05:19.697Z,76.80
2022-12-29T17:07:53.443Z,75.90
2022-12-29T17:10:25.716Z,76.00
2022-12-29T17:12:56.388Z,76.10
2022-12-29T17:15:34.719Z,76.20
2022-12-29T17:18:10.106Z,76.40
2022-12-29T17:20:37.719Z,76.30
2022-12-29T17:23:14.801Z,76.20
2022-12-29T17:25:47.042Z,76.40
2022-12-29T17:28:32.514Z,76.50
2022-12-29T17:31:06.891Z,76.50
2022-12-29T17:36:29.313Z,76.50
2022-12-29T17:39:00.132Z,76.50
2022-12-29T17:41:30.809Z,76.70
2022-12-29T17:44:03.107Z,76.80
2022-12-29T17:52:14.109Z,77.00
2022-12-29T17:54:50.048Z,77.40
2022-12-29T18:00:11.731Z,77.90
2022-12-29T18:02:43.088Z,77.90
2022-12-29T18:05:34.762Z,78.10
2022-12-29T18:08:05.651Z,78.30
2022-12-29T18:10:37.046Z,78.50
2022-12-29T18:13:07.823Z,78.50
2022-12-29T18:15:39.424Z,78.70
2022-12-29T18:18:15.598Z,78.90
2022-12-29T18:20:47.816Z,79.00
2022-12-29T18:23:29.709Z,78.60
2022-12-29T18:26:12.109Z,78.70
2022-12-29T18:28:42.983Z,78.80
2022-12-29T18:31:21.944Z,80.30
2022-12-29T18:33:54.219Z,96.70
2022-12-29T18:36:25.588Z,78.10
2022-12-29T18:38:56.561Z,78.00
2022-12-29T18:41:31.791Z,78.20
2022-12-29T18:44:02.861Z,78.10
2022-12-29T18:46:36.574Z,78.30
2022-12-29T18:49:07.267Z,78.20
2022-12-29T18:51:38.742Z,78.50
2022-12-29T18:54:10.671Z,81.70
2022-12-29T18:56:41.474Z,78.60
2022-12-29T18:59:13.142Z,79.00
2022-12-29T19:01:43.884Z,93.20
2022-12-29T19:04:18.187Z,78.60
2022-12-29T19:06:48.829Z,96.50
2022-12-29T19:09:19.896Z,99.90
2022-12-29T19:14:20.631Z,97.20
2022-12-29T19:19:22.014Z,99.70
2022-12-29T19:31:57.737Z,99.90
2022-12-29T19:34:28.788Z,97.90
2022-12-29T19:36:59.484Z,99.90
2022-12-29T19:39:30.979Z,99.90
2022-12-29T19:42:05.306Z,98.00
2022-12-29T19:44:33.624Z,98.20
2022-12-29T19:47:04.347Z,99.80
2022-12-29T19:52:05.179Z,99.90
2022-12-29T19:57:06.831Z,99.90
2022-12-29T19:59:37.484Z,91.90
2022-12-29T20:02:10.853Z,77.60
2022-12-29T20:04:47.607Z,77.60
2022-12-29T20:07:19.130Z,77.60
2022-12-29T20:09:50.014Z,91.80
2022-12-29T20:12:27.266Z,99.30
2022-12-29T20:14:53.188Z,99.90
2022-12-29T20:22:27.567Z,99.70
2022-12-29T20:25:18.521Z,94.00
2022-12-29T20:27:30.228Z,78.30
2022-12-29T20:30:00.915Z,78.00
2022-12-29T20:32:31.599Z,78.20
2022-12-29T20:35:02.288Z,92.50
2022-12-29T20:37:32.931Z,82.20
2022-12-29T20:40:03.607Z,97.30
2022-12-29T20:42:34.258Z,99.20
2022-12-29T20:45:04.922Z,99.90
2022-12-29T20:47:35.589Z,91.60
2022-12-29T20:50:06.413Z,79.10
2022-12-29T20:52:37.076Z,79.30
2022-12-29T20:55:08.347Z,79.30
2022-12-29T20:58:14.036Z,91.60
2022-12-29T21:00:17.458Z,79.60
2022-12-29T21:02:48.918Z,94.90
2022-12-29T21:05:24.051Z,79.80
2022-12-29T21:07:52.484Z,80.30
2022-12-29T21:10:23.684Z,83.70
2022-12-29T21:12:54.442Z,91.80
2022-12-29T21:15:25.297Z,98.50
2022-12-29T21:17:55.978Z,92.00
2022-12-29T21:20:32.907Z,79.70
2022-12-29T21:23:03.461Z,80.00
2022-12-29T21:25:41.209Z,98.50
2022-12-29T21:28:15.426Z,99.90
2022-12-29T21:30:46.095Z,80.00
2022-12-29T21:33:17.427Z,80.20
2022-12-29T21:35:49.600Z,91.60
2022-12-29T21:38:20.339Z,99.90
2022-12-29T21:40:52.849Z,95.50
2022-12-29T21:43:23.095Z,97.00
2022-12-29T21:45:53.945Z,99.50
2022-12-29T21:48:27.657Z,99.90
2022-12-29T21:53:48.252Z,99.90
2022-12-29T21:59:11.247Z,99.90
2022-12-29T22:01:59.597Z,99.90
2022-12-29T22:04:48.330Z,99.90
2022-12-29T22:07:36.439Z,99.90
2022-12-29T22:10:25.284Z,99.90
2022-12-29T22:13:02.059Z,99.90
2022-12-29T22:15:38.308Z,99.30
2022-12-29T22:18:09.002Z,99.30
2022-12-29T22:20:39.721Z,99.00
2022-12-29T22:23:11.091Z,99.00
2022-12-29T22:25:43.127Z,99.60
2022-12-29T23:56:49.051Z,81.90
2022-12-29T23:59:22.190Z,82.90
